Sterling, North Dakota
Current Conditions -  °F | °C
As of 3:52 AM on Saturday 25 Oct 2014 (Local Time) from KBIS Reporting Station
Broken Clouds Broken Clouds  
Wind Chill: 44°   Ceiling: 12000
Heat Index: 46°   Visibility: 10mi
Dew Point: 32°   Wind: 5mph
Humidity: 58%   Direction: 300°WNW
Pressure: 30.1"   Gusts: NA
Location:  46.81°N, 100.29°W
Report Text: KBIS 250852Z 30004KT 10SM BKN120 08/00 A3010 RMK AO2 SLP195 T00780000 53009
Loading
Personal Weather Stations






























Interactive Weather Map
Tropical Storm Tracking
New forecast layout! Learn more

10-Day Weather Forecast

Advertisements
Track Severe Weather on mobile